Time;durP1;ratioP1;P1;durP2;ratioP2;P2;SDS_P1;SDS_P2;PMS_P1;PMS_P2;Temp;Humidity;BMP_temperature;BMP_pressure;BME280_temperature;BME280_humidity;BME280_pressure;Samples;Min_cycle;Max_cycle;Signal;HPM_P1;HPM_P2
2024/01/02 00:00:18;;;;;;;0.30;0.30;;;6.60;99.90;;;;;;4375013;32;20440;-73
2024/01/02 00:02:43;;;;;;;0.50;0.50;;;6.60;99.90;;;;;;4377037;32;20110;-74
2024/01/02 00:05:09;;;;;;;2.92;1.40;;;6.50;99.90;;;;;;4376714;32;20090;-73
2024/01/02 00:07:35;;;;;;;0.30;0.30;;;6.50;99.90;;;;;;4373107;32;20577;-74
2024/01/02 00:10:00;;;;;;;0.30;0.30;;;6.50;99.90;;;;;;4375416;32;20093;-74
2024/01/02 00:12:26;;;;;;;0.20;0.20;;;6.50;99.90;;;;;;4373240;32;20157;-74
2024/01/02 00:14:52;;;;;;;0.30;0.30;;;6.60;99.90;;;;;;4374728;32;20122;-74
2024/01/02 00:17:18;;;;;;;4.18;0.85;;;6.50;99.90;;;;;;4375243;32;20585;-73
2024/01/02 00:19:44;;;;;;;0.30;0.30;;;6.50;99.90;;;;;;4376669;32;20095;-74
2024/01/02 00:22:09;;;;;;;0.30;0.30;;;6.50;99.90;;;;;;4375834;32;20164;-74
2024/01/02 00:24:34;;;;;;;1.37;0.93;;;6.50;99.90;;;;;;4376483;32;20074;-74
2024/01/02 00:27:02;;;;;;;0.30;0.30;;;6.50;99.90;;;;;;4376222;32;20082;-74
2024/01/02 00:29:27;;;;;;;0.30;0.30;;;6.50;99.90;;;;;;4373653;32;20104;-74
2024/01/02 00:31:53;;;;;;;0.60;0.60;;;6.60;99.90;;;;;;4371908;32;20538;-74
2024/01/02 00:34:18;;;;;;;0.30;0.30;;;6.60;99.90;;;;;;4372471;32;20751;-74
2024/01/02 00:36:44;;;;;;;1.05;0.70;;;6.50;99.90;;;;;;4373126;32;20066;-74
2024/01/02 00:39:10;;;;;;;0.30;0.30;;;6.50;99.90;;;;;;4376655;32;20126;-74
2024/01/02 00:41:36;;;;;;;0.45;0.45;;;6.60;99.90;;;;;;4371549;32;20078;-73
2024/01/02 00:44:01;;;;;;;0.30;0.30;;;6.50;99.90;;;;;;4372968;32;20066;-74
2024/01/02 00:46:27;;;;;;;0.47;0.47;;;6.50;99.90;;;;;;4375057;32;20075;-73
2024/01/02 00:48:52;;;;;;;0.68;0.50;;;6.50;99.90;;;;;;4377672;32;20088;-72
2024/01/02 00:51:18;;;;;;;0.50;0.50;;;6.60;99.90;;;;;;4374968;32;20090;-72
2024/01/02 00:53:43;;;;;;;0.30;0.30;;;6.50;99.90;;;;;;4374730;32;20133;-73
2024/01/02 00:56:08;;;;;;;0.35;0.35;;;6.50;99.90;;;;;;4374778;32;20086;-72
2024/01/02 00:58:34;;;;;;;0.30;0.30;;;6.50;99.90;;;;;;4375624;32;20074;-72
2024/01/02 01:01:00;;;;;;;0.30;0.30;;;6.50;99.90;;;;;;4373959;32;20162;-73
2024/01/02 01:03:25;;;;;;;0.40;0.40;;;6.50;99.90;;;;;;4374771;32;20078;-72
2024/01/02 01:05:50;;;;;;;0.30;0.30;;;6.50;99.90;;;;;;4372821;32;20110;-72
2024/01/02 01:08:16;;;;;;;0.35;0.35;;;6.40;99.90;;;;;;4379380;32;20145;-71
2024/01/02 01:10:41;;;;;;;0.30;0.30;;;6.30;99.90;;;;;;4375023;32;20090;-72
2024/01/02 01:13:07;;;;;;;0.82;0.82;;;6.40;99.90;;;;;;4375019;32;20077;-72
2024/01/02 01:15:33;;;;;;;5.32;2.05;;;6.40;99.90;;;;;;4373316;32;20820;-73
2024/01/02 01:17:58;;;;;;;0.30;0.30;;;6.40;99.90;;;;;;4374021;32;20066;-73
2024/01/02 01:20:24;;;;;;;0.30;0.30;;;6.40;99.90;;;;;;4376135;32;20078;-72
2024/01/02 01:22:49;;;;;;;7.40;1.62;;;6.30;99.90;;;;;;4374898;32;20065;-74
2024/01/02 01:25:15;;;;;;;0.50;0.50;;;6.30;99.90;;;;;;4375263;32;20066;-73
2024/01/02 01:27:40;;;;;;;0.30;0.30;;;6.30;99.90;;;;;;4376727;32;20130;-72
2024/01/02 01:30:06;;;;;;;1.02;0.60;;;6.30;99.90;;;;;;4373647;32;20112;-72
2024/01/02 01:32:32;;;;;;;0.93;0.60;;;6.30;99.90;;;;;;4375664;32;20089;-71
2024/01/02 01:34:58;;;;;;;1.55;0.88;;;6.20;99.90;;;;;;4374867;32;20165;-74
2024/01/02 01:37:23;;;;;;;0.30;0.30;;;6.30;99.90;;;;;;4372409;32;20126;-74
2024/01/02 01:39:49;;;;;;;0.30;0.30;;;6.30;99.90;;;;;;4374485;32;20063;-73
2024/01/02 01:42:14;;;;;;;0.30;0.30;;;6.20;99.90;;;;;;4371209;32;20551;-74
2024/01/02 01:44:40;;;;;;;0.30;0.30;;;6.10;99.90;;;;;;4375794;32;20095;-74
2024/01/02 01:47:06;;;;;;;0.30;0.30;;;6.00;99.90;;;;;;4372927;32;20071;-73
2024/01/02 01:49:31;;;;;;;1.92;0.95;;;5.90;99.90;;;;;;4374018;32;20122;-73
2024/01/02 01:51:58;;;;;;;0.20;0.20;;;5.90;99.90;;;;;;4374551;32;20086;-74
2024/01/02 01:54:25;;;;;;;0.60;0.60;;;5.90;99.90;;;;;;4374298;32;20082;-74
2024/01/02 01:56:52;;;;;;;0.30;0.30;;;5.90;99.90;;;;;;4371253;32;20083;-74
2024/01/02 01:59:17;;;;;;;14.38;0.50;;;6.00;99.90;;;;;;4374219;32;20087;-72
2024/01/02 02:04:11;;;;;;;0.28;0.28;;;6.00;99.90;;;;;;4377972;32;20158;-73
2024/01/02 02:06:36;;;;;;;0.20;0.20;;;5.90;99.90;;;;;;4373275;32;21250;-72
2024/01/02 02:09:02;;;;;;;5.18;1.37;;;5.90;99.90;;;;;;4372615;32;20970;-72
2024/01/02 02:11:29;;;;;;;0.40;0.40;;;5.80;99.90;;;;;;4370728;32;20074;-72
2024/01/02 02:13:55;;;;;;;0.37;0.37;;;5.80;99.90;;;;;;4375646;32;20058;-73
2024/01/02 02:16:20;;;;;;;4.82;0.45;;;5.70;99.90;;;;;;4373310;32;20066;-71
2024/01/02 02:18:46;;;;;;;1.65;0.95;;;5.50;99.90;;;;;;4369913;32;20161;-72
2024/01/02 02:21:11;;;;;;;0.88;0.82;;;5.50;99.90;;;;;;4372691;32;20529;-71
2024/01/02 02:23:37;;;;;;;2.83;0.73;;;5.50;99.90;;;;;;4374401;32;20559;-72
2024/01/02 02:26:02;;;;;;;0.52;0.52;;;5.40;99.90;;;;;;4371332;32;20506;-72
2024/01/02 02:28:28;;;;;;;0.30;0.30;;;5.40;99.90;;;;;;4373703;32;20058;-72
2024/01/02 02:30:53;;;;;;;0.30;0.30;;;5.40;99.90;;;;;;4372103;32;20152;-72
2024/01/02 02:33:19;;;;;;;0.50;0.50;;;5.30;99.90;;;;;;4372102;32;20103;-72
2024/01/02 02:35:44;;;;;;;0.30;0.30;;;5.30;99.90;;;;;;4371220;32;20095;-72
2024/01/02 02:38:09;;;;;;;0.30;0.30;;;5.30;99.90;;;;;;4371366;32;20652;-72
2024/01/02 02:40:36;;;;;;;2.45;0.77;;;5.20;99.90;;;;;;4371613;32;20177;-72
2024/01/02 02:43:01;;;;;;;0.30;0.30;;;5.20;99.90;;;;;;4373603;32;20085;-72
2024/01/02 02:45:27;;;;;;;0.30;0.30;;;5.20;99.90;;;;;;4370744;32;20071;-71
2024/01/02 02:47:53;;;;;;;0.28;0.28;;;5.20;99.90;;;;;;4372357;32;20129;-71
2024/01/02 02:50:19;;;;;;;1.98;1.52;;;5.20;99.90;;;;;;4371849;32;20142;-73
2024/01/02 02:52:44;;;;;;;0.30;0.30;;;5.20;99.90;;;;;;4373899;32;20091;-73
2024/01/02 02:55:09;;;;;;;3.00;0.80;;;5.20;99.90;;;;;;4374869;32;20098;-72
2024/01/02 02:57:35;;;;;;;0.62;0.62;;;5.20;99.90;;;;;;4371614;32;20082;-73
2024/01/02 03:00:01;;;;;;;0.75;0.60;;;5.30;99.90;;;;;;4373869;32;20081;-72
2024/01/02 03:02:26;;;;;;;0.20;0.20;;;5.30;99.90;;;;;;4372468;32;20063;-73
2024/01/02 03:04:52;;;;;;;0.65;0.65;;;5.30;99.90;;;;;;4372782;32;20730;-72
2024/01/02 03:07:18;;;;;;;1.42;1.30;;;5.30;99.90;;;;;;4372385;32;20416;-72
2024/01/02 03:09:44;;;;;;;1.45;0.73;;;5.30;99.90;;;;;;4373071;32;20090;-71
2024/01/02 03:12:12;;;;;;;0.30;0.30;;;5.20;99.90;;;;;;4371161;32;20078;-73
2024/01/02 03:14:37;;;;;;;0.40;0.40;;;5.20;99.90;;;;;;4370642;32;20086;-72
2024/01/02 03:17:04;;;;;;;0.52;0.52;;;5.20;99.90;;;;;;4373680;32;20130;-72
2024/01/02 03:19:29;;;;;;;0.40;0.40;;;5.20;99.90;;;;;;4375892;32;20448;-72
2024/01/02 03:21:55;;;;;;;0.32;0.32;;;5.20;99.90;;;;;;4373331;32;20063;-72
2024/01/02 03:24:20;;;;;;;0.28;0.28;;;5.10;99.90;;;;;;4373830;32;20588;-73
2024/01/02 03:26:46;;;;;;;0.50;0.50;;;5.10;99.90;;;;;;4374788;32;20083;-72
2024/01/02 03:29:11;;;;;;;0.80;0.77;;;4.90;99.90;;;;;;4375315;32;20086;-72
2024/01/02 03:31:37;;;;;;;2.12;1.58;;;4.90;99.90;;;;;;4374879;32;20490;-73
2024/01/02 03:34:03;;;;;;;0.80;0.80;;;4.90;99.90;;;;;;4376177;32;20138;-73
2024/01/02 03:36:28;;;;;;;0.30;0.30;;;4.80;99.90;;;;;;4375178;32;20070;-72
2024/01/02 03:38:54;;;;;;;0.50;0.50;;;4.80;99.90;;;;;;4374308;32;20089;-72
2024/01/02 03:41:19;;;;;;;0.93;0.88;;;4.80;99.90;;;;;;4373549;32;20776;-74
2024/01/02 03:43:45;;;;;;;1.48;0.85;;;4.80;99.90;;;;;;4375362;32;20139;-72
2024/01/02 03:46:12;;;;;;;0.62;0.62;;;4.90;99.90;;;;;;4372065;32;20071;-72
2024/01/02 03:48:37;;;;;;;0.50;0.50;;;4.80;99.90;;;;;;4374540;32;20087;-72
2024/01/02 03:51:03;;;;;;;3.40;1.52;;;4.80;99.90;;;;;;4373656;32;20074;-72
2024/01/02 03:53:29;;;;;;;4.78;0.80;;;4.80;99.90;;;;;;4373878;32;20074;-72
2024/01/02 03:55:55;;;;;;;5.78;2.08;;;4.70;99.90;;;;;;4373355;32;20074;-72
2024/01/02 03:58:21;;;;;;;5.62;1.52;;;4.60;99.90;;;;;;4374164;32;21182;-72
2024/01/02 04:00:46;;;;;;;0.35;0.35;;;4.40;99.90;;;;;;4375301;32;20066;-70
2024/01/02 04:03:12;;;;;;;0.30;0.30;;;4.30;99.90;;;;;;4376330;32;20086;-71
2024/01/02 04:05:37;;;;;;;0.30;0.30;;;4.30;99.90;;;;;;4377574;32;20424;-71
2024/01/02 04:08:03;;;;;;;0.40;0.40;;;4.20;99.90;;;;;;4377020;32;20070;-71
2024/01/02 04:10:29;;;;;;;0.50;0.50;;;4.30;99.90;;;;;;4376729;32;20141;-72
2024/01/02 04:12:54;;;;;;;1.42;1.02;;;4.20;99.90;;;;;;4375767;32;20074;-71
2024/01/02 04:15:20;;;;;;;0.77;0.77;;;4.20;99.90;;;;;;4377660;32;20098;-72
2024/01/02 04:17:45;;;;;;;0.90;0.90;;;4.30;99.90;;;;;;4378927;32;20133;-71
2024/01/02 04:20:11;;;;;;;0.75;0.75;;;4.20;99.90;;;;;;4373919;32;20070;-74
2024/01/02 04:22:36;;;;;;;0.40;0.40;;;4.30;99.90;;;;;;4374834;32;20413;-73
2024/01/02 04:25:02;;;;;;;0.90;0.90;;;4.20;99.90;;;;;;4375777;32;20078;-73
2024/01/02 04:27:27;;;;;;;5.47;2.00;;;4.20;99.90;;;;;;4375779;32;20093;-74
2024/01/02 04:29:53;;;;;;;0.30;0.30;;;4.20;99.90;;;;;;4374382;32;20100;-73
2024/01/02 04:32:18;;;;;;;4.82;1.85;;;4.20;99.90;;;;;;4373097;32;20544;-74
2024/01/02 04:34:44;;;;;;;0.40;0.40;;;4.10;99.90;;;;;;4377116;32;20083;-73
2024/01/02 04:37:11;;;;;;;0.30;0.30;;;4.00;99.90;;;;;;4372614;32;20548;-74
2024/01/02 04:39:36;;;;;;;0.32;0.32;;;3.90;99.90;;;;;;4377159;32;20522;-74
2024/01/02 04:42:02;;;;;;;2.55;1.45;;;3.90;99.90;;;;;;4378129;32;20138;-73
2024/01/02 04:44:28;;;;;;;0.40;0.40;;;3.90;99.90;;;;;;4375147;32;20090;-73
2024/01/02 04:46:53;;;;;;;0.95;0.95;;;3.80;99.90;;;;;;4372290;32;20103;-74
2024/01/02 04:49:19;;;;;;;0.30;0.30;;;3.80;99.90;;;;;;4374285;32;20079;-73
2024/01/02 04:51:45;;;;;;;0.30;0.30;;;3.80;99.90;;;;;;4376936;32;20529;-73
2024/01/02 04:54:10;;;;;;;0.28;0.28;;;3.90;99.90;;;;;;4375637;32;20074;-73
2024/01/02 04:56:36;;;;;;;0.62;0.62;;;3.90;99.90;;;;;;4376884;32;20089;-73
2024/01/02 04:59:01;;;;;;;1.20;0.90;;;3.80;99.90;;;;;;4372251;32;20078;-73
2024/01/02 05:01:27;;;;;;;2.45;0.68;;;3.90;99.90;;;;;;4373755;32;20066;-73
2024/01/02 05:03:52;;;;;;;4.72;1.35;;;3.90;99.90;;;;;;4378072;32;20502;-74
2024/01/02 05:06:18;;;;;;;3.00;1.30;;;3.90;99.90;;;;;;4372044;32;20066;-73
2024/01/02 05:08:43;;;;;;;0.30;0.30;;;3.80;99.90;;;;;;4374772;32;20165;-71
2024/01/02 05:11:09;;;;;;;0.70;0.70;;;3.80;99.90;;;;;;4377029;32;20063;-71
2024/01/02 05:13:34;;;;;;;2.67;1.00;;;3.70;99.90;;;;;;4378620;32;20106;-71
2024/01/02 05:15:59;;;;;;;18.12;1.37;;;3.70;99.90;;;;;;4377091;32;20090;-71
2024/01/02 05:18:25;;;;;;;0.93;0.93;;;3.70;99.90;;;;;;4377816;32;20074;-72
2024/01/02 05:20:50;;;;;;;0.88;0.88;;;3.70;99.90;;;;;;4377334;32;20075;-72
2024/01/02 05:23:16;;;;;;;0.40;0.40;;;3.70;99.90;;;;;;4376613;32;20085;-71
2024/01/02 05:25:42;;;;;;;0.45;0.45;;;3.60;99.90;;;;;;4377557;32;20082;-71
2024/01/02 05:28:07;;;;;;;0.75;0.75;;;3.50;99.90;;;;;;4375620;32;20083;-71
2024/01/02 05:30:33;;;;;;;0.50;0.50;;;3.60;99.90;;;;;;4376663;32;20452;-71
2024/01/02 05:32:58;;;;;;;0.62;0.62;;;3.60;99.90;;;;;;4373007;32;20143;-72
2024/01/02 05:35:24;;;;;;;0.65;0.65;;;3.60;99.90;;;;;;4375499;32;20090;-72
2024/01/02 05:37:49;;;;;;;1.10;0.93;;;3.70;99.90;;;;;;4374798;32;20075;-73
2024/01/02 05:40:15;;;;;;;0.70;0.70;;;3.60;99.90;;;;;;4375999;32;20090;-72
2024/01/02 05:42:40;;;;;;;0.50;0.50;;;3.70;99.90;;;;;;4371488;32;20137;-73
2024/01/02 05:45:06;;;;;;;0.30;0.30;;;3.70;99.90;;;;;;4377430;32;20086;-74
2024/01/02 05:47:32;;;;;;;0.50;0.50;;;3.70;99.90;;;;;;4375863;32;20067;-73
2024/01/02 05:49:57;;;;;;;0.30;0.30;;;3.70;99.90;;;;;;4373233;32;20452;-72
2024/01/02 05:52:23;;;;;;;0.30;0.30;;;3.80;99.90;;;;;;4372985;32;20090;-72
2024/01/02 05:54:48;;;;;;;0.30;0.30;;;3.70;99.90;;;;;;4373793;32;20452;-72
2024/01/02 05:57:14;;;;;;;0.50;0.50;;;3.80;99.90;;;;;;4371422;32;20238;-72
2024/01/02 05:59:39;;;;;;;1.75;1.48;;;3.80;99.90;;;;;;4374527;32;20090;-71
2024/01/02 06:02:05;;;;;;;0.43;0.43;;;3.80;99.90;;;;;;4376138;32;20178;-72
2024/01/02 06:04:30;;;;;;;0.40;0.40;;;3.90;99.90;;;;;;4371854;32;20082;-71
2024/01/02 06:06:56;;;;;;;0.30;0.30;;;3.90;99.90;;;;;;4376496;32;20116;-72
2024/01/02 06:09:22;;;;;;;0.52;0.52;;;3.90;99.90;;;;;;4374454;32;20538;-72
2024/01/02 06:11:48;;;;;;;0.30;0.30;;;3.90;99.90;;;;;;4373021;32;20506;-71
2024/01/02 06:14:15;;;;;;;1.55;1.00;;;3.90;99.90;;;;;;4373280;32;20102;-72
2024/01/02 06:16:41;;;;;;;0.50;0.50;;;4.00;99.90;;;;;;4370294;32;20206;-72
2024/01/02 06:19:06;;;;;;;0.40;0.40;;;3.90;99.90;;;;;;4374361;32;20137;-72
2024/01/02 06:21:31;;;;;;;0.40;0.40;;;4.00;99.90;;;;;;4372783;32;20078;-71
2024/01/02 06:23:57;;;;;;;0.80;0.70;;;4.00;99.90;;;;;;4373254;32;20198;-71
2024/01/02 06:26:23;;;;;;;0.40;0.40;;;4.00;99.90;;;;;;4372165;32;20078;-72
2024/01/02 06:28:48;;;;;;;0.30;0.30;;;4.00;99.90;;;;;;4376441;32;20416;-72
2024/01/02 06:31:14;;;;;;;0.40;0.40;;;4.00;99.90;;;;;;4372471;32;20071;-72
2024/01/02 06:33:44;;;;;;;0.30;0.30;;;4.00;99.90;;;;;;4372564;32;20122;-72
2024/01/02 06:36:10;;;;;;;0.40;0.40;;;4.00;99.90;;;;;;4374941;32;20086;-72
2024/01/02 06:38:35;;;;;;;1.65;0.95;;;4.00;99.90;;;;;;4375789;32;20499;-73
2024/01/02 06:41:01;;;;;;;0.30;0.30;;;4.10;99.90;;;;;;4376520;32;20273;-71
2024/01/02 06:43:26;;;;;;;0.37;0.37;;;4.00;99.90;;;;;;4373940;32;20082;-71
2024/01/02 06:45:51;;;;;;;0.47;0.47;;;4.00;99.90;;;;;;4377019;32;20444;-71
2024/01/02 06:48:17;;;;;;;1.10;0.68;;;4.00;99.90;;;;;;4373741;32;20106;-71
2024/01/02 06:50:42;;;;;;;0.35;0.35;;;4.00;99.90;;;;;;4378523;32;20070;-72
2024/01/02 06:53:08;;;;;;;0.40;0.40;;;4.00;99.90;;;;;;4374078;32;20524;-71
2024/01/02 06:55:33;;;;;;;0.32;0.32;;;4.00;99.90;;;;;;4373911;32;20130;-72
2024/01/02 06:58:00;;;;;;;1.42;0.52;;;4.00;99.90;;;;;;4370907;32;20519;-71
2024/01/02 07:00:25;;;;;;;0.73;0.73;;;4.00;99.90;;;;;;4373095;32;20181;-73
2024/01/02 07:02:51;;;;;;;0.40;0.40;;;4.10;99.90;;;;;;4373695;32;20568;-71
2024/01/02 07:05:17;;;;;;;0.30;0.30;;;4.20;99.90;;;;;;4370560;32;20220;-71
2024/01/02 07:07:42;;;;;;;1.65;1.20;;;4.20;99.90;;;;;;4373922;32;20066;-71
2024/01/02 07:10:08;;;;;;;0.55;0.55;;;4.10;99.90;;;;;;4372450;32;20087;-71
2024/01/02 07:12:33;;;;;;;14.05;1.58;;;4.10;99.90;;;;;;4373860;32;20130;-71
2024/01/02 07:14:59;;;;;;;0.30;0.30;;;4.10;99.90;;;;;;4373548;32;20078;-71
2024/01/02 07:17:25;;;;;;;0.75;0.75;;;4.20;99.90;;;;;;4372006;32;20518;-72
2024/01/02 07:19:51;;;;;;;0.80;0.80;;;4.10;99.90;;;;;;4369609;32;20066;-72
2024/01/02 07:22:17;;;;;;;1.50;1.40;;;4.10;99.90;;;;;;4372772;32;20143;-71
2024/01/02 07:24:44;;;;;;;0.62;0.62;;;4.10;99.90;;;;;;4371654;32;20067;-72
2024/01/02 07:27:09;;;;;;;0.30;0.30;;;4.10;99.90;;;;;;4374526;32;20562;-71
2024/01/02 07:29:35;;;;;;;0.95;0.95;;;4.10;99.90;;;;;;4374065;32;20134;-71
2024/01/02 07:32:00;;;;;;;0.30;0.30;;;4.20;99.90;;;;;;4375128;32;20078;-72
2024/01/02 07:34:26;;;;;;;0.30;0.30;;;4.30;99.90;;;;;;4375448;32;20083;-71
2024/01/02 07:36:51;;;;;;;1.25;1.15;;;4.30;99.90;;;;;;4377349;32;20134;-72
2024/01/02 07:39:16;;;;;;;0.40;0.40;;;4.30;99.90;;;;;;4375919;32;20087;-70
2024/01/02 07:41:42;;;;;;;0.40;0.40;;;4.30;99.90;;;;;;4380974;32;20082;-71
2024/01/02 07:44:08;;;;;;;0.75;0.57;;;4.30;99.90;;;;;;4376757;32;20075;-71
2024/01/02 07:46:33;;;;;;;0.50;0.50;;;4.30;99.90;;;;;;4378464;32;20137;-72
2024/01/02 07:48:58;;;;;;;0.47;0.47;;;4.30;99.90;;;;;;4376380;32;20499;-73
2024/01/02 07:51:24;;;;;;;1.65;1.30;;;4.40;99.90;;;;;;4371713;32;20127;-72
2024/01/02 07:53:49;;;;;;;0.30;0.30;;;4.50;99.90;;;;;;4373043;32;20082;-72
2024/01/02 07:56:19;;;;;;;5.57;1.55;;;4.50;99.90;;;;;;4372565;32;20083;-73
2024/01/02 07:58:46;;;;;;;0.70;0.70;;;4.40;99.90;;;;;;4376601;32;20083;-72
2024/01/02 08:01:13;;;;;;;1.87;0.93;;;4.50;99.90;;;;;;4371887;32;20070;-72
2024/01/02 08:03:38;;;;;;;0.37;0.37;;;4.40;99.90;;;;;;4372969;32;20074;-73
2024/01/02 08:06:04;;;;;;;0.30;0.30;;;4.40;99.90;;;;;;4371668;32;20085;-73
2024/01/02 08:08:29;;;;;;;0.30;0.30;;;4.50;99.90;;;;;;4373646;32;20082;-72
2024/01/02 08:10:55;;;;;;;0.50;0.50;;;4.40;99.90;;;;;;4380702;32;20149;-72
2024/01/02 08:13:20;;;;;;;0.32;0.32;;;4.50;99.90;;;;;;4373816;32;20554;-72
2024/01/02 08:15:46;;;;;;;0.50;0.50;;;4.60;99.90;;;;;;4377604;32;20142;-72
2024/01/02 08:18:11;;;;;;;0.32;0.32;;;4.60;99.90;;;;;;4376464;32;20134;-72
2024/01/02 08:20:37;;;;;;;1.10;1.00;;;4.60;99.90;;;;;;4377045;32;20090;-72
2024/01/02 08:23:03;;;;;;;0.43;0.37;;;4.60;99.90;;;;;;4375932;32;20075;-72
2024/01/02 08:25:29;;;;;;;0.30;0.30;;;4.50;99.90;;;;;;4376061;32;20090;-72
2024/01/02 08:27:54;;;;;;;3.53;1.35;;;4.50;99.90;;;;;;4375400;32;20087;-72
2024/01/02 08:30:19;;;;;;;0.37;0.37;;;4.50;99.90;;;;;;4376108;32;20075;-73
2024/01/02 08:32:45;;;;;;;1.35;1.10;;;4.50;99.90;;;;;;4374411;32;21607;-72
2024/01/02 08:35:11;;;;;;;0.98;0.98;;;4.50;99.90;;;;;;4374507;32;20078;-73
2024/01/02 08:37:36;;;;;;;0.30;0.30;;;4.60;99.90;;;;;;4374364;32;20070;-72
2024/01/02 08:40:03;;;;;;;0.37;0.37;;;4.60;99.90;;;;;;4375885;32;20105;-74
2024/01/02 08:42:28;;;;;;;2.55;1.95;;;4.60;99.90;;;;;;4373540;32;20460;-74
2024/01/02 08:44:54;;;;;;;0.30;0.30;;;4.60;99.90;;;;;;4372884;32;20091;-74
2024/01/02 08:47:19;;;;;;;0.52;0.52;;;4.60;99.90;;;;;;4373193;32;20150;-74
2024/01/02 08:49:46;;;;;;;0.30;0.30;;;4.50;99.90;;;;;;4374664;32;20081;-74
2024/01/02 08:52:12;;;;;;;0.90;0.62;;;4.50;99.90;;;;;;4373995;32;20074;-74
2024/01/02 08:54:38;;;;;;;1.10;0.62;;;4.50;99.90;;;;;;4372936;32;20102;-74
2024/01/02 08:57:04;;;;;;;0.30;0.30;;;4.60;99.90;;;;;;4373848;32;20114;-74
2024/01/02 08:59:32;;;;;;;3.20;1.30;;;4.60;99.90;;;;;;4376301;32;20448;-71
2024/01/02 09:01:58;;;;;;;2.17;0.93;;;4.50;99.90;;;;;;4376723;32;20129;-72
2024/01/02 09:04:24;;;;;;;0.30;0.30;;;4.50;99.90;;;;;;4380441;32;20758;-72
2024/01/02 09:06:51;;;;;;;0.30;0.30;;;4.60;99.90;;;;;;4381618;32;20086;-73
2024/01/02 09:09:17;;;;;;;0.35;0.35;;;4.50;99.90;;;;;;4378368;32;20099;-73
2024/01/02 09:11:42;;;;;;;1.00;0.93;;;4.60;99.90;;;;;;4383237;32;20074;-72
2024/01/02 09:14:08;;;;;;;11.93;0.73;;;4.50;99.90;;;;;;4382592;32;20074;-72
2024/01/02 09:16:36;;;;;;;0.43;0.43;;;4.50;99.90;;;;;;4382040;32;20090;-73
2024/01/02 09:19:02;;;;;;;0.40;0.40;;;4.60;99.90;;;;;;4379148;32;20094;-71
2024/01/02 09:21:28;;;;;;;0.30;0.30;;;4.70;99.90;;;;;;4382520;32;20148;-71
2024/01/02 09:23:54;;;;;;;0.40;0.40;;;4.70;99.90;;;;;;4380496;32;20090;-71
2024/01/02 09:26:22;;;;;;;1.27;0.95;;;4.70;99.90;;;;;;4380512;32;20095;-71
2024/01/02 09:28:48;;;;;;;0.35;0.35;;;4.80;99.90;;;;;;4381013;32;20078;-73
2024/01/02 09:31:14;;;;;;;0.40;0.40;;;4.80;99.90;;;;;;4378885;32;20102;-74
2024/01/02 09:33:42;;;;;;;0.50;0.50;;;4.80;99.90;;;;;;4380969;32;20089;-73
2024/01/02 09:36:08;;;;;;;0.50;0.50;;;4.80;99.90;;;;;;4380293;32;20098;-73
2024/01/02 09:38:37;;;;;;;0.40;0.40;;;4.80;99.90;;;;;;4377237;32;20765;-72
2024/01/02 09:41:30;;;;;;;0.47;0.40;;;4.90;99.90;;;;;;4379920;32;20070;-73
2024/01/02 09:44:26;;;;;;;0.30;0.30;;;4.90;99.90;;;;;;4372606;32;20117;-73
2024/01/02 09:47:32;;;;;;;0.30;0.30;;;4.80;99.90;;;;;;4367257;32;20519;-72
2024/01/02 09:50:04;;;;;;;0.30;0.30;;;4.80;99.90;;;;;;4365348;32;20079;-73
2024/01/02 09:52:53;;;;;;;0.82;0.62;;;4.80;99.90;;;;;;4374945;32;20095;-73
2024/01/02 09:55:35;;;;;;;0.50;0.50;;;4.90;99.90;;;;;;4374851;32;20115;-73
2024/01/02 09:58:41;;;;;;;0.62;0.62;;;4.90;99.90;;;;;;4374538;32;20078;-73
2024/01/02 10:01:15;;;;;;;0.30;0.30;;;4.90;99.90;;;;;;4361658;32;20078;-73
2024/01/02 10:04:10;;;;;;;1.17;0.95;;;5.00;99.90;;;;;;4373930;32;20103;-73
2024/01/02 10:06:57;;;;;;;0.50;0.50;;;5.00;99.90;;;;;;4362470;32;20090;-73
2024/01/02 10:09:47;;;;;;;0.30;0.30;;;5.00;99.90;;;;;;4362908;32;20087;-71
2024/01/02 10:12:47;;;;;;;0.40;0.40;;;5.10;99.90;;;;;;4367078;32;20082;-71
2024/01/02 10:15:23;;;;;;;0.57;0.57;;;5.20;99.90;;;;;;4365723;32;20075;-72
2024/01/02 10:18:05;;;;;;;1.83;0.93;;;5.20;99.90;;;;;;4380422;32;20326;-70
2024/01/02 10:20:47;;;;;;;0.75;0.47;;;5.20;99.90;;;;;;4379368;32;20078;-71
2024/01/02 10:23:33;;;;;;;0.30;0.30;;;5.10;99.90;;;;;;4380545;32;20098;-71
2024/01/02 10:26:01;;;;;;;0.30;0.30;;;5.20;99.90;;;;;;4380484;32;20078;-70
2024/01/02 10:28:27;;;;;;;0.30;0.30;;;5.20;99.90;;;;;;4381981;32;20075;-72
2024/01/02 10:31:04;;;;;;;0.40;0.40;;;5.20;99.90;;;;;;4379887;32;20125;-71
2024/01/02 10:33:42;;;;;;;0.40;0.40;;;5.30;99.90;;;;;;4379676;32;20095;-72
2024/01/02 10:36:11;;;;;;;0.30;0.30;;;5.30;99.90;;;;;;4382968;32;20102;-71
2024/01/02 10:39:01;;;;;;;0.30;0.30;;;5.30;99.90;;;;;;4377874;32;20067;-71
2024/01/02 10:41:48;;;;;;;1.13;1.00;;;5.40;99.90;;;;;;4380869;32;20126;-70
2024/01/02 10:44:42;;;;;;;0.37;0.37;;;5.50;99.90;;;;;;4379018;32;20172;-70
2024/01/02 10:47:33;;;;;;;0.30;0.30;;;5.50;99.90;;;;;;4382555;32;20090;-73
2024/01/02 10:50:02;;;;;;;0.30;0.30;;;5.50;99.90;;;;;;4381736;32;20190;-71
2024/01/02 10:52:42;;;;;;;1.25;0.68;;;5.50;99.90;;;;;;4381239;32;20067;-71
2024/01/02 10:55:16;;;;;;;0.35;0.35;;;5.50;99.90;;;;;;4381606;32;20086;-73
2024/01/02 10:58:02;;;;;;;0.57;0.57;;;5.40;99.90;;;;;;4379925;32;20070;-72
2024/01/02 11:00:32;;;;;;;0.35;0.35;;;5.40;99.90;;;;;;4362185;32;20082;-74
2024/01/02 11:03:10;;;;;;;0.47;0.47;;;5.50;99.90;;;;;;4374860;32;20098;-73
2024/01/02 11:06:00;;;;;;;0.80;0.70;;;5.50;99.90;;;;;;4361813;32;20063;-73
2024/01/02 11:08:53;;;;;;;2.28;1.23;;;5.50;99.90;;;;;;4361282;32;20099;-74
2024/01/02 11:11:19;;;;;;;0.30;0.30;;;5.40;99.90;;;;;;4373185;32;20407;-73
2024/01/02 11:13:47;;;;;;;0.40;0.40;;;5.40;99.90;;;;;;4372867;32;20083;-74
2024/01/02 11:16:17;;;;;;;0.30;0.30;;;5.50;99.90;;;;;;4377301;32;20073;-74
2024/01/02 11:18:48;;;;;;;0.30;0.30;;;5.50;99.90;;;;;;4374802;32;20538;-71
2024/01/02 11:21:40;;;;;;;0.32;0.32;;;5.60;99.90;;;;;;4383412;32;20706;-71
2024/01/02 11:24:07;;;;;;;0.30;0.30;;;5.60;99.90;;;;;;4369170;32;20102;-73
2024/01/02 11:26:40;;;;;;;0.30;0.30;;;5.60;99.90;;;;;;4382736;32;20059;-71
2024/01/02 11:29:14;;;;;;;0.30;0.30;;;5.60;99.90;;;;;;4380630;32;20082;-73
2024/01/02 11:31:41;;;;;;;0.65;0.65;;;5.60;99.90;;;;;;4381228;32;20067;-70
2024/01/02 11:34:36;;;;;;;0.30;0.30;;;5.50;99.90;;;;;;4379569;32;20138;-72
2024/01/02 11:37:19;;;;;;;0.40;0.40;;;5.50;99.90;;;;;;4369900;32;20105;-72
2024/01/02 11:40:00;;;;;;;0.40;0.40;;;5.60;99.90;;;;;;4381904;32;20082;-71
2024/01/02 11:42:57;;;;;;;0.50;0.50;;;5.60;99.90;;;;;;4381771;32;20063;-72
2024/01/02 11:45:26;;;;;;;0.30;0.30;;;5.60;99.90;;;;;;4368304;32;20538;-72
2024/01/02 11:47:58;;;;;;;0.60;0.55;;;5.70;99.90;;;;;;4385144;32;20082;-72
2024/01/02 11:50:31;;;;;;;0.30;0.30;;;5.70;99.90;;;;;;4381327;32;81364;-71
2024/01/02 11:53:02;;;;;;;0.30;0.30;;;5.70;99.90;;;;;;4381396;32;20149;-71
2024/01/02 11:55:51;;;;;;;0.40;0.40;;;5.70;99.90;;;;;;4382279;32;20079;-73
2024/01/02 11:58:24;;;;;;;0.20;0.20;;;5.60;99.90;;;;;;4379987;32;20074;-72
2024/01/02 12:01:08;;;;;;;0.40;0.40;;;5.60;99.90;;;;;;4379450;32;20110;-71
2024/01/02 12:03:43;;;;;;;0.30;0.30;;;5.60;99.90;;;;;;4384970;32;20099;-71
2024/01/02 12:06:21;;;;;;;0.30;0.30;;;5.60;99.90;;;;;;4383442;32;20071;-71
2024/01/02 12:09:04;;;;;;;0.30;0.30;;;5.60;99.90;;;;;;4383177;32;20074;-72
2024/01/02 12:11:32;;;;;;;0.50;0.50;;;5.60;99.90;;;;;;4376012;32;21062;-73
2024/01/02 12:14:23;;;;;;;0.30;0.30;;;5.60;99.90;;;;;;4380024;32;20078;-73
2024/01/02 12:16:51;;;;;;;0.82;0.77;;;5.70;99.90;;;;;;4374212;32;20689;-73
2024/01/02 12:19:20;;;;;;;0.37;0.37;;;5.70;99.90;;;;;;4376154;32;20561;-73
2024/01/02 12:21:47;;;;;;;1.20;1.10;;;5.70;99.90;;;;;;4375381;32;20542;-74
2024/01/02 12:24:14;;;;;;;0.30;0.30;;;5.80;99.90;;;;;;4377789;32;20510;-74
2024/01/02 12:26:42;;;;;;;0.32;0.32;;;5.80;99.90;;;;;;4373731;32;20448;-74
2024/01/02 12:29:09;;;;;;;0.22;0.22;;;5.70;99.90;;;;;;4374533;32;20082;-73
2024/01/02 12:31:45;;;;;;;0.30;0.30;;;5.80;99.90;;;;;;4372135;32;20617;-73
2024/01/02 12:34:32;;;;;;;0.52;0.35;;;5.70;99.90;;;;;;4376456;32;20082;-73
2024/01/02 12:37:18;;;;;;;0.62;0.50;;;5.70;99.90;;;;;;4376186;32;20074;-73
2024/01/02 12:39:47;;;;;;;0.47;0.47;;;5.80;99.90;;;;;;4374791;32;20090;-73
2024/01/02 12:42:18;;;;;;;0.35;0.35;;;5.80;99.90;;;;;;4375004;32;20137;-73
2024/01/02 12:44:50;;;;;;;0.43;0.43;;;5.70;99.90;;;;;;4373928;32;20123;-73
2024/01/02 12:47:21;;;;;;;0.25;0.25;;;5.60;99.90;;;;;;4372696;32;20444;-73
2024/01/02 12:49:59;;;;;;;0.30;0.30;;;5.60;99.90;;;;;;4373966;32;20075;-73
2024/01/02 12:52:30;;;;;;;0.22;0.22;;;5.60;99.90;;;;;;4373662;32;20650;-73
2024/01/02 12:54:57;;;;;;;0.47;0.47;;;5.60;99.90;;;;;;4374129;32;20066;-73
2024/01/02 12:57:23;;;;;;;1.17;0.65;;;5.70;99.90;;;;;;4374656;32;20075;-73
2024/01/02 12:59:53;;;;;;;14.18;1.05;;;5.70;99.90;;;;;;4374502;32;20526;-74
2024/01/02 13:02:18;;;;;;;0.50;0.50;;;5.80;99.90;;;;;;4374302;32;20091;-73
2024/01/02 13:04:44;;;;;;;0.30;0.30;;;5.70;99.90;;;;;;4377356;32;20086;-73
2024/01/02 13:07:11;;;;;;;0.30;0.30;;;5.70;99.90;;;;;;4376848;32;20079;-73